Time;durP1;ratioP1;P1;durP2;ratioP2;P2;SDS_P1;SDS_P2;PMS_P1;PMS_P2;Temp;Humidity;BMP_temperature;BMP_pressure;BME280_temperature;BME280_humidity;BME280_pressure;Samples;Min_cycle;Max_cycle;Signal;HPM_P1;HPM_P2
2022/09/20 00:02:18;;;;;;;4.40;1.60;;;11.20;99.90;;;;;;5015336;28;20030;-73
2022/09/20 00:04:43;;;;;;;3.30;1.77;;;11.30;99.90;;;;;;5015316;28;20030;-73
2022/09/20 00:07:09;;;;;;;2.10;1.33;;;11.20;99.90;;;;;;5015979;28;20057;-73
2022/09/20 00:09:34;;;;;;;2.50;1.55;;;11.30;99.90;;;;;;5016761;28;20030;-73
2022/09/20 00:12:00;;;;;;;6.97;1.80;;;11.30;99.90;;;;;;5015912;28;20028;-73
2022/09/20 00:14:26;;;;;;;7.38;1.70;;;11.30;99.90;;;;;;5015079;28;20393;-73
2022/09/20 00:16:52;;;;;;;3.78;1.60;;;11.30;99.90;;;;;;5015761;28;20026;-72
2022/09/20 00:19:19;;;;;;;4.68;1.42;;;11.30;99.90;;;;;;5014941;28;20148;-72
2022/09/20 00:21:45;;;;;;;3.47;1.48;;;11.30;99.90;;;;;;5014954;28;20026;-73
2022/09/20 00:24:11;;;;;;;4.38;1.58;;;11.30;99.90;;;;;;5014331;28;20486;-73
2022/09/20 00:26:37;;;;;;;3.42;1.50;;;11.20;99.90;;;;;;5014880;28;20173;-73
2022/09/20 00:29:03;;;;;;;6.70;1.83;;;11.20;99.90;;;;;;5015574;28;20033;-73
2022/09/20 00:31:28;;;;;;;3.70;1.45;;;11.10;99.90;;;;;;5014793;28;20037;-73
2022/09/20 00:36:39;;;;;;;5.80;1.60;;;11.10;99.90;;;;;;5016063;28;20618;-73
2022/09/20 00:39:05;;;;;;;6.13;1.60;;;11.10;99.90;;;;;;5014063;28;20128;-73
2022/09/20 00:41:31;;;;;;;5.50;1.88;;;11.10;99.90;;;;;;5014580;28;20117;-73
2022/09/20 00:43:57;;;;;;;4.55;1.35;;;11.00;99.90;;;;;;5015584;28;20455;-73
2022/09/20 00:46:38;;;;;;;4.07;1.50;;;11.10;99.90;;;;;;5014544;28;20029;-73
2022/09/20 00:49:12;;;;;;;4.18;1.35;;;11.00;99.90;;;;;;5013944;28;20030;-72
2022/09/20 00:51:40;;;;;;;5.30;1.95;;;11.00;99.90;;;;;;5015729;28;20026;-73
2022/09/20 00:54:09;;;;;;;6.55;1.55;;;11.00;99.90;;;;;;5015872;28;20081;-72
2022/09/20 00:56:40;;;;;;;7.20;2.28;;;11.10;99.90;;;;;;5015954;28;20076;-72
2022/09/20 00:59:26;;;;;;;6.82;1.55;;;11.10;99.90;;;;;;5013847;28;20494;-73
2022/09/20 01:02:01;;;;;;;7.50;1.75;;;11.10;99.90;;;;;;5013853;28;20030;-73
2022/09/20 01:04:28;;;;;;;8.27;1.92;;;11.10;99.90;;;;;;5014456;28;20128;-72
2022/09/20 01:06:58;;;;;;;7.35;1.80;;;11.10;99.90;;;;;;5013618;28;20483;-72
2022/09/20 01:09:24;;;;;;;3.85;1.52;;;11.00;99.90;;;;;;5013925;28;20034;-72
2022/09/20 01:11:51;;;;;;;6.05;1.60;;;11.00;99.90;;;;;;5014174;28;20509;-72
2022/09/20 01:14:17;;;;;;;3.25;1.35;;;11.00;99.90;;;;;;5015078;28;20034;-73
2022/09/20 01:16:43;;;;;;;3.20;1.50;;;11.00;99.90;;;;;;5015258;28;20029;-73
2022/09/20 01:19:38;;;;;;;7.50;1.83;;;11.00;99.90;;;;;;5014702;28;20030;-73
2022/09/20 01:22:12;;;;;;;4.15;1.60;;;11.00;99.90;;;;;;5013285;28;20033;-73
2022/09/20 01:24:49;;;;;;;5.97;1.73;;;11.00;99.90;;;;;;5013832;28;20030;-72
2022/09/20 01:27:40;;;;;;;4.30;1.85;;;10.90;99.90;;;;;;5013332;28;20060;-72
2022/09/20 01:30:10;;;;;;;5.65;1.80;;;10.80;99.90;;;;;;5012323;28;20037;-72
2022/09/20 01:33:05;;;;;;;3.42;1.63;;;10.90;99.90;;;;;;5013695;28;20026;-72
2022/09/20 01:35:34;;;;;;;5.32;1.77;;;10.90;99.90;;;;;;5013545;28;20510;-72
2022/09/20 01:38:20;;;;;;;6.68;1.48;;;10.80;99.90;;;;;;5014235;28;20109;-73
2022/09/20 01:41:02;;;;;;;5.68;1.88;;;10.90;99.90;;;;;;5013432;28;20036;-72
2022/09/20 01:43:37;;;;;;;;;;;11.00;99.90;;;;;;5014065;28;20026;-72
2022/09/20 01:46:32;;;;;;;5.13;1.90;;;11.00;99.90;;;;;;5012828;28;19941;-73
2022/09/20 01:49:30;;;;;;;6.18;1.77;;;11.10;99.90;;;;;;5012856;28;20486;-72
2022/09/20 01:52:33;;;;;;;4.78;2.05;;;11.00;99.90;;;;;;5013820;28;20030;-73
2022/09/20 01:55:01;;;;;;;6.03;1.85;;;11.00;99.90;;;;;;5013902;28;20034;-73
2022/09/20 01:57:45;;;;;;;3.58;1.48;;;11.00;99.90;;;;;;5013382;28;20443;-73
2022/09/20 02:00:25;;;;;;;6.05;1.40;;;10.90;99.90;;;;;;5012207;28;20026;-73
2022/09/20 02:03:03;;;;;;;4.50;1.67;;;10.90;99.90;;;;;;5013167;28;20490;-72
2022/09/20 02:05:54;;;;;;;5.45;1.38;;;10.90;99.90;;;;;;5012686;28;20034;-72
2022/09/20 02:08:56;;;;;;;4.03;1.27;;;11.00;99.90;;;;;;5014485;28;20107;-73
2022/09/20 02:11:40;;;;;;;5.30;1.80;;;10.90;99.90;;;;;;5013252;28;20347;-72
2022/09/20 02:14:36;;;;;;;5.20;1.60;;;10.90;99.90;;;;;;5012464;28;20375;-73
2022/09/20 02:17:09;;;;;;;5.82;1.75;;;10.90;99.90;;;;;;5013497;28;20037;-73
2022/09/20 02:19:38;;;;;;;8.15;2.17;;;10.90;99.90;;;;;;5013065;28;20495;-72
2022/09/20 02:22:28;;;;;;;10.80;1.60;;;10.80;99.90;;;;;;5011628;28;20305;-73
2022/09/20 02:24:54;;;;;;;7.72;1.30;;;10.80;99.90;;;;;;5012908;28;20038;-73
2022/09/20 02:27:34;;;;;;;7.25;1.65;;;10.80;99.90;;;;;;5012114;28;20438;-73
2022/09/20 02:30:30;;;;;;;2.33;1.33;;;10.80;99.90;;;;;;5012092;28;20037;-73
2022/09/20 02:33:28;;;;;;;5.95;1.60;;;10.80;99.90;;;;;;5013002;28;20053;-74
2022/09/20 02:36:13;;;;;;;5.72;1.40;;;10.80;99.90;;;;;;5009284;28;20053;-73
2022/09/20 02:38:56;;;;;;;4.10;1.20;;;10.80;99.90;;;;;;5013689;28;20038;-72
2022/09/20 02:41:40;;;;;;;5.95;1.30;;;10.80;99.90;;;;;;5012357;28;20076;-73
2022/09/20 02:44:44;;;;;;;3.45;1.30;;;10.80;99.90;;;;;;5013391;28;20076;-73
2022/09/20 02:47:34;;;;;;;5.97;1.50;;;10.80;99.90;;;;;;5011775;28;20477;-72
2022/09/20 02:50:11;;;;;;;5.78;1.45;;;10.80;99.90;;;;;;5013264;28;20053;-73
2022/09/20 02:53:03;;;;;;;4.30;1.40;;;10.90;99.90;;;;;;5013483;28;20025;-73
2022/09/20 02:55:45;;;;;;;3.85;1.60;;;10.80;99.90;;;;;;5012437;28;20164;-72
2022/09/20 02:58:29;;;;;;;3.17;1.42;;;10.80;99.90;;;;;;5011541;28;20061;-73
2022/09/20 03:01:23;;;;;;;5.85;1.58;;;10.80;99.90;;;;;;5013428;28;20037;-72
2022/09/20 03:04:18;;;;;;;4.18;1.30;;;10.90;99.90;;;;;;5013553;28;20026;-72
2022/09/20 03:07:11;;;;;;;3.78;1.52;;;10.90;99.90;;;;;;5013470;28;20188;-73
2022/09/20 03:09:47;;;;;;;5.10;1.58;;;10.80;99.90;;;;;;5013068;28;20026;-72
2022/09/20 03:12:50;;;;;;;7.22;1.60;;;10.90;99.90;;;;;;5011471;28;20156;-73
2022/09/20 03:15:23;;;;;;;3.10;1.55;;;10.90;99.90;;;;;;5012776;28;20025;-73
2022/09/20 03:18:10;;;;;;;8.75;1.58;;;10.90;99.90;;;;;;5013190;28;20045;-73
2022/09/20 03:20:59;;;;;;;5.45;1.35;;;10.90;99.90;;;;;;5013180;28;20021;-72
2022/09/20 03:23:55;;;;;;;5.57;1.60;;;10.90;99.90;;;;;;5013079;28;20037;-72
2022/09/20 03:26:50;;;;;;;6.30;1.33;;;11.00;99.90;;;;;;5012487;28;20025;-73
2022/09/20 03:29:21;;;;;;;8.68;1.67;;;11.00;99.90;;;;;;5011213;28;20041;-73
2022/09/20 03:32:22;;;;;;;4.82;1.50;;;11.00;99.90;;;;;;5013009;28;20026;-73
2022/09/20 03:35:05;;;;;;;3.90;1.33;;;11.00;99.90;;;;;;4976299;28;20105;-73
2022/09/20 03:38:00;;;;;;;4.18;1.35;;;11.00;99.90;;;;;;5011909;28;20049;-73
2022/09/20 03:41:07;;;;;;;3.45;1.40;;;11.00;99.90;;;;;;5012842;28;20048;-73
2022/09/20 03:44:14;;;;;;;5.80;1.48;;;11.00;99.90;;;;;;4971314;28;20027;-73
2022/09/20 03:46:47;;;;;;;9.02;1.50;;;11.00;99.90;;;;;;4925977;28;20101;-73
2022/09/20 03:49:50;;;;;;;4.55;1.70;;;11.00;99.90;;;;;;4970886;28;20138;-73
2022/09/20 03:52:38;;;;;;;7.15;1.77;;;11.00;99.90;;;;;;4954698;28;20027;-72
2022/09/20 03:55:17;;;;;;;6.50;1.70;;;10.90;99.90;;;;;;4970971;28;20118;-73
2022/09/20 03:58:19;;;;;;;3.78;1.45;;;10.90;99.90;;;;;;4971386;28;20117;-72
2022/09/20 04:00:55;;;;;;;3.92;1.40;;;11.00;99.90;;;;;;4970891;28;20041;-72
2022/09/20 04:03:39;;;;;;;11.18;2.00;;;10.90;99.90;;;;;;4970898;28;20329;-73
2022/09/20 04:06:28;;;;;;;4.72;1.40;;;10.90;99.90;;;;;;4954533;28;20512;-73
2022/09/20 04:09:23;;;;;;;5.00;1.40;;;10.80;99.90;;;;;;4944760;28;20046;-73
2022/09/20 04:12:11;;;;;;;5.55;1.67;;;10.80;99.90;;;;;;4955256;28;20044;-72
2022/09/20 04:14:47;;;;;;;4.28;1.73;;;10.70;99.90;;;;;;4989570;28;20033;-72
2022/09/20 04:17:19;;;;;;;3.35;1.73;;;10.70;99.90;;;;;;5011918;28;20073;-72
2022/09/20 04:19:51;;;;;;;4.22;1.60;;;10.70;99.90;;;;;;5012299;28;20026;-73
2022/09/20 04:22:21;;;;;;;3.72;1.60;;;10.70;99.90;;;;;;5010773;28;20065;-72
2022/09/20 04:25:10;;;;;;;6.55;1.63;;;10.70;99.90;;;;;;5011290;28;20116;-72
2022/09/20 04:27:53;;;;;;;4.70;1.65;;;10.60;99.90;;;;;;5012640;28;20353;-73
2022/09/20 04:30:23;;;;;;;6.05;1.63;;;10.60;99.90;;;;;;5010642;28;20484;-73
2022/09/20 04:33:03;;;;;;;6.03;1.60;;;10.60;99.90;;;;;;5012327;28;20046;-72
2022/09/20 04:39:02;;;;;;;4.35;1.45;;;10.60;99.90;;;;;;5012149;28;20112;-72
2022/09/20 04:41:56;;;;;;;6.13;1.52;;;10.60;99.90;;;;;;5012079;28;20022;-72
2022/09/20 04:44:40;;;;;;;3.47;1.40;;;10.60;99.90;;;;;;5003645;28;20041;-72
2022/09/20 04:47:26;;;;;;;9.60;1.60;;;10.60;99.90;;;;;;5014099;28;20030;-73
2022/09/20 04:50:16;;;;;;;6.85;1.60;;;10.60;99.90;;;;;;5015586;28;20034;-72
2022/09/20 04:52:48;;;;;;;4.70;1.60;;;10.50;99.90;;;;;;5014636;28;20022;-72
2022/09/20 04:55:59;;;;;;;4.47;1.52;;;10.50;99.90;;;;;;5015046;28;20517;-72
2022/09/20 04:58:43;;;;;;;3.13;1.70;;;10.40;99.90;;;;;;4998452;28;20111;-73
2022/09/20 05:01:18;;;;;;;7.03;1.67;;;10.40;99.90;;;;;;5013769;28;20029;-73
2022/09/20 05:03:52;;;;;;;3.20;1.73;;;10.40;99.90;;;;;;5015577;28;20022;-73
2022/09/20 05:06:57;;;;;;;5.18;1.33;;;10.40;99.90;;;;;;5014822;28;20026;-74
2022/09/20 05:10:00;;;;;;;4.65;1.85;;;10.40;99.90;;;;;;4998400;28;20483;-72
2022/09/20 05:13:06;;;;;;;5.00;1.70;;;10.50;99.90;;;;;;5013463;28;20022;-73
2022/09/20 05:15:38;;;;;;;6.47;1.90;;;10.50;99.90;;;;;;5015431;28;20026;-73
2022/09/20 05:18:25;;;;;;;6.78;1.60;;;10.50;99.90;;;;;;5013942;28;20475;-72
2022/09/20 05:21:00;;;;;;;4.93;1.70;;;10.50;99.90;;;;;;5013826;28;20026;-72
2022/09/20 05:23:31;;;;;;;6.93;2.13;;;10.50;99.90;;;;;;5013366;28;20089;-73
2022/09/20 05:26:09;;;;;;;5.00;2.10;;;10.60;99.90;;;;;;5015304;28;20097;-72
2022/09/20 05:28:48;;;;;;;5.13;2.25;;;10.50;99.90;;;;;;5013810;28;20034;-73
2022/09/20 05:31:44;;;;;;;7.38;2.33;;;10.50;99.90;;;;;;5013280;28;20033;-73
2022/09/20 05:34:24;;;;;;;4.15;1.63;;;10.50;99.90;;;;;;5007877;28;20042;-73
2022/09/20 05:37:19;;;;;;;6.28;1.50;;;10.50;99.90;;;;;;5015105;28;20034;-72
2022/09/20 05:40:12;;;;;;;5.20;1.70;;;10.60;99.90;;;;;;5013782;28;20125;-72
2022/09/20 05:43:10;;;;;;;5.60;1.83;;;10.60;99.90;;;;;;5013506;28;20025;-72
2022/09/20 05:45:54;;;;;;;5.30;2.10;;;10.50;99.90;;;;;;5013431;28;20056;-72
2022/09/20 05:48:38;;;;;;;4.28;1.73;;;10.60;99.90;;;;;;5014070;28;20030;-73
2022/09/20 05:51:41;;;;;;;5.07;1.70;;;10.60;99.90;;;;;;5014188;28;20395;-72
2022/09/20 05:54:17;;;;;;;;;;;10.70;99.90;;;;;;5015022;28;20489;-72
2022/09/20 05:57:14;;;;;;;5.47;1.70;;;10.70;99.90;;;;;;5013506;28;20003;-73
2022/09/20 05:59:59;;;;;;;8.32;1.80;;;10.70;99.90;;;;;;5013285;28;20041;-72
2022/09/20 06:03:03;;;;;;;8.77;1.70;;;10.70;99.90;;;;;;5012682;28;20057;-73
2022/09/20 06:05:33;;;;;;;7.10;1.90;;;10.70;99.90;;;;;;5012317;28;20026;-73
2022/09/20 06:08:28;;;;;;;5.38;1.95;;;10.80;99.90;;;;;;5014314;28;20030;-73
2022/09/20 06:11:22;;;;;;;4.47;1.55;;;10.90;99.90;;;;;;5013214;28;20037;-73
2022/09/20 06:14:09;;;;;;;7.78;1.75;;;10.90;99.90;;;;;;5012946;28;20053;-73
2022/09/20 06:16:56;;;;;;;4.32;1.85;;;10.90;99.90;;;;;;5013110;28;20168;-73
2022/09/20 06:19:58;;;;;;;3.88;1.70;;;11.00;99.90;;;;;;5012315;28;20185;-73
2022/09/20 06:22:46;;;;;;;6.30;2.05;;;11.00;99.90;;;;;;5012254;28;20026;-73
2022/09/20 06:25:14;;;;;;;7.63;2.25;;;11.10;99.90;;;;;;5011917;28;20062;-73
2022/09/20 06:28:03;;;;;;;7.55;1.60;;;11.10;99.90;;;;;;5013891;28;20080;-72
2022/09/20 06:30:34;;;;;;;2.95;1.65;;;11.10;99.90;;;;;;5011276;28;20116;-73
2022/09/20 06:33:05;;;;;;;8.45;2.03;;;11.10;99.90;;;;;;5012665;28;20026;-73
2022/09/20 06:35:38;;;;;;;12.65;2.40;;;11.10;99.90;;;;;;5012029;28;20085;-72
2022/09/20 06:43:44;;;;;;;8.23;2.45;;;11.30;99.90;;;;;;5013480;28;20077;-73
2022/09/20 06:46:10;;;;;;;6.47;2.10;;;11.40;99.90;;;;;;5013598;28;20026;-72
2022/09/20 06:48:38;;;;;;;8.27;2.42;;;11.40;99.90;;;;;;5013591;28;20030;-73
2022/09/20 06:51:06;;;;;;;5.03;2.00;;;11.40;99.90;;;;;;5012437;28;20092;-72
2022/09/20 06:53:36;;;;;;;5.90;2.03;;;11.50;99.90;;;;;;5012977;28;20061;-71
2022/09/20 06:56:02;;;;;;;5.78;2.25;;;11.60;99.90;;;;;;5013461;28;20558;-73
2022/09/20 06:58:28;;;;;;;8.40;2.08;;;11.60;99.90;;;;;;5011501;28;20091;-72
2022/09/20 07:00:53;;;;;;;4.70;1.88;;;11.70;99.90;;;;;;5013431;28;20025;-73
2022/09/20 07:03:19;;;;;;;7.68;2.70;;;11.70;99.90;;;;;;5011518;28;20033;-73
2022/09/20 07:05:45;;;;;;;4.88;2.10;;;11.70;99.90;;;;;;5011752;28;20045;-73
2022/09/20 07:08:11;;;;;;;11.38;2.35;;;11.70;99.90;;;;;;5013066;28;20041;-73
2022/09/20 07:10:37;;;;;;;11.07;2.50;;;11.70;99.90;;;;;;5011998;28;20026;-73
2022/09/20 07:13:03;;;;;;;8.73;2.20;;;11.60;99.90;;;;;;5011695;28;20030;-72
2022/09/20 07:15:33;;;;;;;5.80;1.77;;;11.70;99.90;;;;;;5012620;28;20515;-73
2022/09/20 07:17:59;;;;;;;6.85;1.88;;;11.70;99.90;;;;;;5011944;28;20045;-73
2022/09/20 07:20:25;;;;;;;6.97;2.03;;;11.70;99.90;;;;;;5012527;28;20025;-73
2022/09/20 07:22:52;;;;;;;7.35;1.77;;;11.70;99.90;;;;;;5011881;28;20030;-73
2022/09/20 07:25:18;;;;;;;5.88;2.05;;;11.70;99.90;;;;;;5011223;28;20030;-73
2022/09/20 07:27:45;;;;;;;4.72;1.90;;;11.70;99.90;;;;;;5011779;28;20150;-73
2022/09/20 07:30:13;;;;;;;9.02;2.10;;;11.70;99.90;;;;;;5013015;28;20088;-73
2022/09/20 07:32:39;;;;;;;6.88;1.60;;;11.70;99.90;;;;;;5011940;28;20032;-73
2022/09/20 07:35:07;;;;;;;6.03;1.70;;;11.70;99.90;;;;;;5011123;28;20099;-72
2022/09/20 07:37:33;;;;;;;4.65;1.27;;;11.70;99.90;;;;;;5012371;28;20149;-73
2022/09/20 07:39:59;;;;;;;5.18;1.70;;;11.80;99.90;;;;;;5011571;28;20450;-73
2022/09/20 07:42:24;;;;;;;3.33;1.42;;;11.80;99.90;;;;;;5012594;28;20030;-73
2022/09/20 07:44:51;;;;;;;4.68;1.55;;;11.90;99.90;;;;;;5012542;28;20034;-73
2022/09/20 07:47:17;;;;;;;5.78;1.70;;;11.90;99.90;;;;;;5012333;28;20033;-73
2022/09/20 07:49:43;;;;;;;6.70;1.45;;;12.00;99.90;;;;;;5011869;28;20022;-73
2022/09/20 07:52:10;;;;;;;2.85;1.50;;;12.10;99.90;;;;;;5012761;28;20034;-72
2022/09/20 07:54:35;;;;;;;9.30;1.63;;;12.20;99.90;;;;;;5011045;28;20149;-73
2022/09/20 07:57:01;;;;;;;4.15;1.50;;;12.20;99.90;;;;;;5011401;28;20116;-72
2022/09/20 07:59:27;;;;;;;9.57;1.50;;;12.20;99.90;;;;;;5012104;28;20030;-73
2022/09/20 08:01:53;;;;;;;8.40;1.77;;;12.20;99.90;;;;;;5012637;28;20032;-72
2022/09/20 08:04:18;;;;;;;5.88;1.70;;;12.20;99.90;;;;;;5010831;28;20022;-73
2022/09/20 08:06:45;;;;;;;5.10;1.35;;;12.20;99.90;;;;;;5010977;28;20125;-72
2022/09/20 08:09:12;;;;;;;3.05;1.30;;;12.30;99.90;;;;;;5012903;28;20068;-73
2022/09/20 08:11:39;;;;;;;4.45;1.30;;;12.40;99.90;;;;;;5010752;28;20026;-73
2022/09/20 08:14:05;;;;;;;3.10;1.10;;;12.50;99.90;;;;;;5012652;28;20030;-72
2022/09/20 08:16:31;;;;;;;4.97;1.67;;;12.60;99.90;;;;;;5012050;28;20022;-72
2022/09/20 08:18:59;;;;;;;10.27;1.52;;;12.80;99.90;;;;;;5011146;28;20034;-72
2022/09/20 08:21:27;;;;;;;4.65;1.10;;;12.90;99.90;;;;;;5014530;28;20065;-73
2022/09/20 08:23:53;;;;;;;5.65;1.13;;;13.00;99.90;;;;;;5016313;28;20030;-72
2022/09/20 08:26:22;;;;;;;4.88;1.00;;;13.00;99.90;;;;;;5015705;28;20049;-73
2022/09/20 08:28:52;;;;;;;6.10;1.30;;;13.00;99.90;;;;;;5016206;28;20025;-72
2022/09/20 08:31:19;;;;;;;4.13;1.13;;;13.10;99.90;;;;;;5014279;28;20463;-74
2022/09/20 08:33:45;;;;;;;4.05;0.95;;;13.20;99.90;;;;;;5016018;28;20541;-72
2022/09/20 08:36:14;;;;;;;5.07;1.60;;;13.30;99.90;;;;;;5014941;28;20038;-73
2022/09/20 08:38:40;;;;;;;8.23;2.05;;;13.30;99.90;;;;;;5014305;28;20505;-73
2022/09/20 08:41:09;;;;;;;4.80;1.10;;;13.30;99.90;;;;;;5016000;28;20065;-73
2022/09/20 08:43:39;;;;;;;6.82;1.45;;;13.20;99.90;;;;;;5014244;28;20124;-72
2022/09/20 08:46:09;;;;;;;7.05;2.17;;;13.20;99.90;;;;;;5014809;28;20038;-72
2022/09/20 08:48:34;;;;;;;6.00;1.60;;;13.30;99.90;;;;;;5014036;28;20042;-73
2022/09/20 08:51:01;;;;;;;6.80;1.67;;;13.20;99.90;;;;;;5015675;28;20113;-73
2022/09/20 08:53:28;;;;;;;5.25;1.35;;;13.30;99.90;;;;;;5013981;28;20026;-73
2022/09/20 08:55:58;;;;;;;6.47;1.48;;;13.30;99.90;;;;;;5016026;28;20026;-72
2022/09/20 08:58:26;;;;;;;3.95;0.80;;;13.30;99.90;;;;;;5013763;28;20037;-73
2022/09/20 09:00:55;;;;;;;5.78;1.17;;;13.30;99.90;;;;;;5014577;28;20022;-73
2022/09/20 09:03:20;;;;;;;5.85;1.38;;;13.40;99.90;;;;;;5013714;28;20121;-73
2022/09/20 09:05:52;;;;;;;5.75;0.95;;;13.40;99.90;;;;;;5014112;28;20124;-72
2022/09/20 09:08:20;;;;;;;4.65;0.90;;;13.50;99.90;;;;;;5014583;28;20096;-73
2022/09/20 09:10:56;;;;;;;5.32;0.70;;;13.60;99.90;;;;;;5014436;28;20042;-73
2022/09/20 09:13:41;;;;;;;8.32;1.27;;;13.60;99.90;;;;;;5013777;28;20030;-73
2022/09/20 09:16:13;;;;;;;2.00;0.63;;;13.60;99.90;;;;;;5015181;28;20073;-73
2022/09/20 09:18:41;;;;;;;3.67;0.57;;;13.60;99.90;;;;;;5013546;28;20420;-73
2022/09/20 09:21:09;;;;;;;4.40;0.90;;;13.70;99.90;;;;;;5014008;28;20088;-72
2022/09/20 09:23:41;;;;;;;3.13;0.68;;;13.80;99.90;;;;;;5013373;28;20485;-73
2022/09/20 09:26:21;;;;;;;3.15;0.60;;;13.80;99.90;;;;;;5015401;28;20033;-72
2022/09/20 09:29:16;;;;;;;5.60;0.93;;;13.90;99.90;;;;;;5015131;28;20041;-72
2022/09/20 09:31:47;;;;;;;10.25;1.00;;;14.10;99.90;;;;;;5012991;28;20033;-73
2022/09/20 09:34:37;;;;;;;3.90;1.23;;;14.20;99.90;;;;;;5013564;28;20054;-72
2022/09/20 09:37:03;;;;;;;6.00;1.25;;;14.20;99.90;;;;;;5013589;28;20037;-72
2022/09/20 09:39:29;;;;;;;6.20;1.02;;;14.30;99.90;;;;;;5013991;28;20042;-73
2022/09/20 09:41:55;;;;;;;6.80;1.10;;;14.30;99.90;;;;;;5015142;28;20364;-72
2022/09/20 09:44:24;;;;;;;4.88;1.10;;;14.30;99.90;;;;;;5014825;28;20022;-76
2022/09/20 09:46:52;;;;;;;3.50;0.73;;;14.30;99.90;;;;;;5013745;28;20034;-73
2022/09/20 09:49:29;;;;;;;5.45;0.85;;;14.40;99.90;;;;;;5013594;28;20040;-73
2022/09/20 09:52:14;;;;;;;4.22;0.70;;;14.40;99.90;;;;;;5013627;28;20030;-72
2022/09/20 09:54:47;;;;;;;4.50;0.70;;;14.40;99.90;;;;;;5014178;28;20471;-73
2022/09/20 09:57:25;;;;;;;4.57;0.80;;;14.50;99.90;;;;;;5014730;28;20029;-73
2022/09/20 09:59:50;;;;;;;4.15;0.70;;;14.70;99.90;;;;;;5013193;28;20037;-73
2022/09/20 10:02:36;;;;;;;4.03;0.82;;;14.70;99.90;;;;;;5013218;28;20041;-73
2022/09/20 10:05:13;;;;;;;6.82;0.80;;;14.90;99.90;;;;;;5014480;28;20485;-73
2022/09/20 10:08:04;;;;;;;2.58;0.55;;;15.00;99.90;;;;;;5012703;28;20037;-73
2022/09/20 10:10:42;;;;;;;3.83;0.70;;;15.20;99.90;;;;;;5012595;28;20112;-73
2022/09/20 10:13:22;;;;;;;2.85;1.00;;;15.20;99.90;;;;;;5013052;28;20026;-75
2022/09/20 10:16:02;;;;;;;3.80;1.17;;;15.40;99.90;;;;;;5013031;28;20116;-72
2022/09/20 10:18:33;;;;;;;2.00;0.65;;;15.40;99.90;;;;;;5013764;28;20029;-73
2022/09/20 10:21:06;;;;;;;3.05;0.70;;;15.50;99.90;;;;;;5013034;28;20475;-72
2022/09/20 10:23:33;;;;;;;5.20;0.90;;;15.60;99.90;;;;;;5012291;28;20041;-73
2022/09/20 10:26:44;;;;;;;3.60;0.60;;;15.50;99.90;;;;;;5012773;28;20061;-73
2022/09/20 10:29:30;;;;;;;3.90;0.57;;;15.40;99.90;;;;;;5008364;28;20513;-72
2022/09/20 10:32:06;;;;;;;5.30;1.00;;;15.40;99.90;;;;;;5013725;28;20030;-73
2022/09/20 10:34:50;;;;;;;4.55;0.73;;;15.30;99.90;;;;;;5011829;28;20445;-73
2022/09/20 10:37:22;;;;;;;3.78;0.60;;;15.20;99.90;;;;;;5014092;28;20409;-73
2022/09/20 10:40:04;;;;;;;3.35;0.55;;;15.10;99.10;;;;;;5012009;28;20034;-73
2022/09/20 10:43:30;;;;;;;3.60;0.55;;;15.10;98.70;;;;;;5012686;28;20041;-73
2022/09/20 10:46:10;;;;;;;5.70;0.95;;;15.10;98.40;;;;;;5009081;28;20041;-73
2022/09/20 10:48:51;;;;;;;4.47;0.90;;;15.20;98.60;;;;;;5012293;28;20053;-73
2022/09/20 10:51:19;;;;;;;1.63;0.40;;;15.20;99.10;;;;;;5012301;28;20111;-73
2022/09/20 10:54:23;;;;;;;5.32;2.30;;;15.10;99.50;;;;;;5013166;28;20432;-73
2022/09/20 10:56:55;;;;;;;6.15;2.28;;;15.00;99.40;;;;;;5003879;28;20368;-73
2022/09/20 10:59:46;;;;;;;4.03;1.10;;;15.00;99.30;;;;;;5012359;28;20034;-73
2022/09/20 11:02:34;;;;;;;7.10;1.55;;;15.30;99.00;;;;;;5012299;28;20386;-73
2022/09/20 11:05:27;;;;;;;3.30;0.80;;;15.50;98.30;;;;;;5012368;28;20498;-74
2022/09/20 11:07:57;;;;;;;3.10;0.80;;;15.50;98.70;;;;;;5011968;28;20487;-73
2022/09/20 11:10:27;;;;;;;7.78;1.10;;;15.40;98.60;;;;;;5012164;28;20030;-72
2022/09/20 11:13:28;;;;;;;5.25;1.05;;;15.40;98.30;;;;;;5013670;28;20432;-73
2022/09/20 11:16:01;;;;;;;4.80;0.50;;;15.30;98.00;;;;;;4990890;28;20072;-72
2022/09/20 11:18:41;;;;;;;2.50;0.77;;;15.30;97.30;;;;;;5011412;28;20088;-76
2022/09/20 11:21:16;;;;;;;2.70;0.68;;;15.30;98.20;;;;;;5011994;28;20422;-73
2022/09/20 11:23:44;;;;;;;4.60;0.85;;;15.20;98.30;;;;;;5012599;28;20026;-73
2022/09/20 11:26:15;;;;;;;2.85;0.82;;;15.20;99.10;;;;;;5013063;28;20026;-73
2022/09/20 11:28:43;;;;;;;1.50;0.60;;;15.20;98.30;;;;;;5011389;28;20034;-73
2022/09/20 11:31:13;;;;;;;3.65;0.65;;;15.10;96.70;;;;;;5013066;28;20109;-73
2022/09/20 11:33:57;;;;;;;3.42;0.50;;;15.10;96.90;;;;;;5010926;28;20491;-73
2022/09/20 11:36:38;;;;;;;2.30;0.43;;;15.00;96.40;;;;;;5011806;28;20036;-73
2022/09/20 11:39:25;;;;;;;2.38;0.82;;;15.00;96.80;;;;;;5011733;28;20045;-74
2022/09/20 11:41:54;;;;;;;3.92;0.63;;;15.00;97.30;;;;;;5011086;28;20022;-73
2022/09/20 11:44:21;;;;;;;2.25;0.80;;;15.10;97.90;;;;;;5011563;28;20076;-73
2022/09/20 11:46:56;;;;;;;4.03;0.75;;;15.10;97.40;;;;;;5011165;28;20030;-73
2022/09/20 11:49:26;;;;;;;2.53;0.60;;;15.20;98.70;;;;;;5011718;28;20523;-73
2022/09/20 11:52:08;;;;;;;4.07;0.68;;;15.30;99.50;;;;;;5010986;28;20176;-73
2022/09/20 11:55:03;;;;;;;3.47;0.60;;;15.40;99.70;;;;;;5013305;28;20025;-74
2022/09/20 11:57:29;;;;;;;2.85;0.77;;;15.50;99.00;;;;;;5016203;28;20125;-76
2022/09/20 12:00:01;;;;;;;2.22;0.70;;;15.60;99.50;;;;;;5016788;28;20084;-73
2022/09/20 12:02:50;;;;;;;2.58;0.60;;;15.80;99.20;;;;;;5015549;28;20077;-73
2022/09/20 12:05:34;;;;;;;1.55;0.57;;;16.10;95.90;;;;;;5015443;28;20034;-73
2022/09/20 12:08:20;;;;;;;4.20;0.50;;;16.50;95.70;;;;;;5016650;28;20066;-73
2022/09/20 12:11:03;;;;;;;2.42;0.50;;;16.90;95.30;;;;;;5014971;28;20116;-72
2022/09/20 12:13:30;;;;;;;2.90;0.75;;;16.90;94.10;;;;;;5015387;28;20460;-73
2022/09/20 12:16:03;;;;;;;1.73;0.40;;;16.60;93.70;;;;;;5015276;28;20461;-73
2022/09/20 12:18:38;;;;;;;4.13;0.60;;;16.50;94.10;;;;;;5015326;28;20045;-73
2022/09/20 12:21:09;;;;;;;1.60;0.50;;;16.70;93.10;;;;;;5016455;28;20022;-73
2022/09/20 12:23:44;;;;;;;2.80;0.30;;;17.00;91.90;;;;;;5014776;28;20026;-73
2022/09/20 12:26:21;;;;;;;1.65;0.50;;;17.40;91.20;;;;;;5016512;28;20030;-73
2022/09/20 12:28:52;;;;;;;5.05;0.60;;;17.80;90.40;;;;;;5014577;28;20030;-73
2022/09/20 12:31:20;;;;;;;2.92;0.50;;;18.20;90.10;;;;;;5015162;28;20076;-73
2022/09/20 12:34:08;;;;;;;2.03;1.00;;;17.90;90.00;;;;;;5015662;28;20042;-73
2022/09/20 12:36:43;;;;;;;3.50;0.70;;;17.70;88.00;;;;;;5014502;28;20088;-73
2022/09/20 12:39:11;;;;;;;2.70;0.50;;;17.60;90.10;;;;;;5014937;28;20034;-73
2022/09/20 12:41:44;;;;;;;3.08;0.70;;;17.70;90.40;;;;;;5014406;28;20026;-73
2022/09/20 12:44:39;;;;;;;3.13;0.55;;;17.70;90.40;;;;;;5014765;28;20057;-73
2022/09/20 12:47:11;;;;;;;1.80;0.75;;;17.60;91.00;;;;;;5014897;28;20073;-73
2022/09/20 12:55:26;;;;;;;2.13;0.60;;;17.50;90.50;;;;;;5015602;28;20092;-72
2022/09/20 12:57:56;;;;;;;3.25;0.68;;;17.40;90.00;;;;;;5013923;28;20034;-73
2022/09/20 13:00:38;;;;;;;4.00;0.73;;;17.40;89.90;;;;;;5014717;28;20022;-73
2022/09/20 13:03:35;;;;;;;1.95;0.50;;;17.20;89.40;;;;;;5014535;28;20038;-73
2022/09/20 13:06:13;;;;;;;1.17;0.50;;;17.20;90.40;;;;;;5013810;28;20117;-73
2022/09/20 13:08:46;;;;;;;1.77;0.60;;;17.30;91.00;;;;;;5013996;28;20034;-73
2022/09/20 13:11:33;;;;;;;1.27;0.80;;;17.20;90.90;;;;;;5014470;28;20030;-72
2022/09/20 13:14:13;;;;;;;1.60;0.40;;;17.10;91.20;;;;;;5014321;28;20467;-72
2022/09/20 13:16:54;;;;;;;2.17;0.98;;;17.00;91.70;;;;;;5013874;28;20426;-73
2022/09/20 13:19:28;;;;;;;3.90;0.60;;;18.10;90.30;;;;;;5014198;28;20034;-73
2022/09/20 13:22:05;;;;;;;2.35;0.63;;;19.40;88.60;;;;;;5013648;28;20186;-73
2022/09/20 13:24:49;;;;;;;1.52;0.50;;;20.60;82.80;;;;;;5015396;28;20108;-73
2022/09/20 13:27:26;;;;;;;3.50;0.70;;;21.40;77.70;;;;;;5014099;28;20026;-73
2022/09/20 13:29:52;;;;;;;2.42;0.43;;;21.80;73.80;;;;;;5014809;28;20473;-73
2022/09/20 13:32:30;;;;;;;1.63;0.40;;;21.90;71.30;;;;;;5014089;28;20438;-73
2022/09/20 13:35:08;;;;;;;2.28;0.40;;;22.40;67.00;;;;;;5013017;28;20049;-73
2022/09/20 13:37:44;;;;;;;1.38;0.40;;;22.40;64.90;;;;;;5014996;28;20038;-73
2022/09/20 13:40:49;;;;;;;0.80;0.50;;;21.90;64.70;;;;;;5014073;28;20159;-73
2022/09/20 13:43:34;;;;;;;2.17;0.60;;;21.50;65.70;;;;;;5006360;28;20041;-73
2022/09/20 13:46:07;;;;;;;0.70;0.38;;;21.10;66.30;;;;;;5013407;28;20387;-73
2022/09/20 13:48:33;;;;;;;2.63;0.60;;;20.90;66.90;;;;;;5013701;28;20025;-73
2022/09/20 13:50:59;;;;;;;1.45;0.50;;;20.50;66.90;;;;;;5013040;28;20071;-73
2022/09/20 13:53:27;;;;;;;2.00;0.60;;;20.30;67.40;;;;;;5013555;28;20130;-73
2022/09/20 13:55:54;;;;;;;1.35;0.50;;;20.00;68.30;;;;;;5013043;28;20166;-73
2022/09/20 13:58:21;;;;;;;2.33;0.40;;;19.90;69.90;;;;;;5013467;28;20063;-72
2022/09/20 14:00:56;;;;;;;2.38;0.43;;;19.70;68.20;;;;;;5012899;28;20029;-73